Port Alexander, AK (99836)

12:09 AM AKST on February 07, 2016 (GMT -0900)
Kake | | Change Station
CLOSE
Current Station
Airport
Location: Kake,
Elevation: 171 ft
Nearby Weather Stations

Elev 171 ft 56.96 °N, 133.91 °W | Updated 13 minutes ago

Scattered Clouds
Scattered Clouds
37 °F
Feels Like 29 °F
N
13
Wind Variable Wind from East
Gusts 18 mph

Today
High -- | Low -- °F
--% Chance of Precip.
Yesterday
High -- | Low -- °F
Precip. -- in
Pressure 30.19 in
Visibility 10.0 miles
Clouds Few 4500 ft
Scattered Clouds 6500 ft
Windchill 29 °F
Dew Point 28 °F
Humidity 70%
Rainfall 0.00 in
Snow Depth Not available.
7:42 AM 4:43 PM
Waning Crescent, 2% visible
METAR PAFE 070856Z AUTO 09011G16KT 10SM FEW045 SCT065 03/M02 A3019 RMK AO1 57024
Pressure 30.19 in
Visibility 10.0 miles
Clouds Few 4500 ft
Scattered Clouds 6500 ft
Windchill 29 °F
Dew Point 28 °F
Humidity 70%
Rainfall 0.00 in
Snow Depth Not available.
7:42 AM 4:43 PM
Waning Crescent, 2% visible
METAR PAFE 070856Z AUTO 09011G16KT 10SM FEW045 SCT065 03/M02 A3019 RMK AO1 57024

10-Day Weather Forecast

Almanac

Astronomy

Feb. 07, 2016 Rise Set
Actual Time
Civil Twilight
Nautical Twilight
Astronomical Twilight
Moon
Length of Visible Light
Length of Day
Tomorrow will be .
, % of the Moon is Illuminated

Today's Extremes

State Highs State Lows

Community

WunderPhotos

Upload Photos

1,891,171 photos uploaded!

WunderBlog® & News

Nearby

Air Quality

  Air Quality AQ Index Pollutant
Not available.

Snow Depth

Station Depth Elevation

Earthquake Activity

City Distance Mag. Time & Date
Minimum magnitude displayed is 2.5.

Coastal Water Temperatures

Place Temperature

Stations

Nearby Weather Stations

Station Location Temp. Windchill Dew Point Humidity Wind Precip. Elev Updated Type
                   

Watches & Warnings

There are currently no watches in effect.